SCX8860 KMKE-KMSP
Flight info
| Callsign | SCX8860 |
|---|---|
| Flight time | 0h 57m |
| Altitude | 38000 |
| Route | HAWKN ROBBY KBULL KKILR3 |
| Aircraft | B738/M-SDE2E3FGHIRWXY/LB1 |
Departure
| Time | 2026-05-05 01:57 |
|---|---|
| Airport | General Mitchell International Airport (KMKE) |
Arrival
| Time | 2026-05-05 02:55 |
|---|---|
| Airport | Minneapolis–Saint Paul International Airport / Wold–Chamberlain Field (KMSP) |
| Time | Latitude | Longitude | Altitude | Speed | Heading |
|---|---|---|---|---|---|
| 2026-05-05 01:29 | 42.94870 | -87.89813 | 687 ft | 0 kts | 255° |
| 2026-05-05 01:42 | 42.94870 | -87.89811 | 687 ft | 2 kts | 255° |
| 2026-05-05 01:42 | 42.94876 | -87.89780 | 685 ft | 3 kts | 255° |
| 2026-05-05 01:43 | 42.94881 | -87.89750 | 679 ft | 4 kts | 262° |
| 2026-05-05 01:43 | 42.94881 | -87.89717 | 679 ft | 4 kts | 302° |
| 2026-05-05 01:43 | 42.94865 | -87.89706 | 679 ft | 4 kts | 6° |
| 2026-05-05 01:43 | 42.94849 | -87.89709 | 679 ft | 0 kts | 6° |
| 2026-05-05 01:49 | 42.94882 | -87.89706 | 679 ft | 9 kts | 1° |
| 2026-05-05 01:49 | 42.94960 | -87.89689 | 685 ft | 12 kts | 44° |
| 2026-05-05 01:50 | 42.94938 | -87.89603 | 684 ft | 14 kts | 165° |
| 2026-05-05 01:50 | 42.94806 | -87.89616 | 683 ft | 22 kts | 187° |
| 2026-05-05 01:50 | 42.94640 | -87.89644 | 684 ft | 26 kts | 187° |
| 2026-05-05 01:50 | 42.94479 | -87.89672 | 687 ft | 21 kts | 188° |
| 2026-05-05 01:51 | 42.94305 | -87.89701 | 684 ft | 28 kts | 187° |
| 2026-05-05 01:51 | 42.94139 | -87.89781 | 684 ft | 24 kts | 223° |
| 2026-05-05 01:51 | 42.94060 | -87.89847 | 683 ft | 0 kts | 188° |
| 2026-05-05 01:51 | 42.94043 | -87.89857 | 685 ft | 10 kts | 204° |
| 2026-05-05 01:52 | 42.93928 | -87.89886 | 684 ft | 23 kts | 182° |
| 2026-05-05 01:52 | 42.93765 | -87.89888 | 683 ft | 23 kts | 181° |
| 2026-05-05 01:52 | 42.93609 | -87.89892 | 683 ft | 22 kts | 181° |
| 2026-05-05 01:52 | 42.93456 | -87.89899 | 683 ft | 22 kts | 182° |
| 2026-05-05 01:53 | 42.93307 | -87.89911 | 683 ft | 21 kts | 186° |
| 2026-05-05 01:53 | 42.93190 | -87.89931 | 683 ft | 14 kts | 185° |
| 2026-05-05 01:53 | 42.93146 | -87.89939 | 681 ft | 0 kts | 187° |
| 2026-05-05 01:55 | 42.93138 | -87.89941 | 684 ft | 6 kts | 187° |
| 2026-05-05 01:55 | 42.93086 | -87.89926 | 685 ft | 8 kts | 141° |
| 2026-05-05 01:55 | 42.93075 | -87.89893 | 686 ft | 0 kts | 100° |
| 2026-05-05 01:55 | 42.93071 | -87.89820 | 672 ft | 16 kts | 96° |
| 2026-05-05 01:56 | 42.93126 | -87.89751 | 687 ft | 0 kts | 5° |
| 2026-05-05 01:57 | 42.93140 | -87.89749 | 684 ft | 17 kts | 6° |
| 2026-05-05 01:57 | 42.93588 | -87.89675 | 684 ft | 111 kts | 7° |
| 2026-05-05 01:57 | 42.94612 | -87.89483 | 811 ft | 178 kts | 5° |
| 2026-05-05 01:57 | 42.95920 | -87.89143 | 1545 ft | 203 kts | 8° |
| 2026-05-05 01:58 | 42.97367 | -87.88683 | 2308 ft | 220 kts | 7° |
| 2026-05-05 01:58 | 42.98897 | -87.88229 | 3239 ft | 230 kts | 7° |
| 2026-05-05 01:58 | 43.00491 | -87.87773 | 4174 ft | 238 kts | 6° |
| 2026-05-05 01:58 | 43.02127 | -87.87288 | 5109 ft | 241 kts | 6° |
| 2026-05-05 01:59 | 43.03807 | -87.86774 | 5658 ft | 255 kts | 6° |
| 2026-05-05 01:59 | 43.05613 | -87.86286 | 5922 ft | 275 kts | 358° |
| 2026-05-05 01:59 | 43.06856 | -87.86498 | 6222 ft | 273 kts | 333° |
| 2026-05-05 01:59 | 43.08293 | -87.88010 | 7126 ft | 253 kts | 300° |
| 2026-05-05 02:00 | 43.09288 | -87.89992 | 8125 ft | 254 kts | 298° |
| 2026-05-05 02:00 | 43.10302 | -87.91975 | 9122 ft | 254 kts | 298° |
| 2026-05-05 02:00 | 43.11340 | -87.93952 | 10030 ft | 257 kts | 299° |
| 2026-05-05 02:00 | 43.12420 | -87.95967 | 10594 ft | 273 kts | 300° |
| 2026-05-05 02:01 | 43.13606 | -87.98158 | 10822 ft | 300 kts | 300° |
| 2026-05-05 02:01 | 43.14907 | -88.00520 | 11190 ft | 318 kts | 301° |
| 2026-05-05 02:01 | 43.16271 | -88.02955 | 11906 ft | 325 kts | 301° |
| 2026-05-05 02:01 | 43.17595 | -88.05301 | 12717 ft | 327 kts | 302° |
| 2026-05-05 02:02 | 43.19033 | -88.07846 | 13555 ft | 330 kts | 301° |
| 2026-05-05 02:02 | 43.20437 | -88.10337 | 14317 ft | 332 kts | 301° |
| 2026-05-05 02:02 | 43.21863 | -88.12855 | 15028 ft | 334 kts | 301° |
| 2026-05-05 02:02 | 43.23286 | -88.15372 | 15872 ft | 335 kts | 301° |
| 2026-05-05 02:03 | 43.24726 | -88.17924 | 16558 ft | 340 kts | 301° |
| 2026-05-05 02:03 | 43.26181 | -88.20508 | 17230 ft | 345 kts | 301° |
| 2026-05-05 02:03 | 43.27652 | -88.23125 | 17929 ft | 348 kts | 301° |
| 2026-05-05 02:03 | 43.29136 | -88.25764 | 18553 ft | 351 kts | 301° |
| 2026-05-05 02:04 | 43.30591 | -88.28447 | 19184 ft | 351 kts | 298° |
| 2026-05-05 02:04 | 43.31956 | -88.31235 | 19803 ft | 352 kts | 297° |
| 2026-05-05 02:04 | 43.33287 | -88.34071 | 20392 ft | 355 kts | 297° |
| 2026-05-05 02:04 | 43.34618 | -88.36940 | 20971 ft | 358 kts | 297° |
| 2026-05-05 02:05 | 43.35961 | -88.39834 | 21528 ft | 361 kts | 297° |
| 2026-05-05 02:05 | 43.37315 | -88.42744 | 22087 ft | 364 kts | 297° |
| 2026-05-05 02:05 | 43.38691 | -88.45690 | 22650 ft | 367 kts | 297° |
| 2026-05-05 02:05 | 43.40071 | -88.48639 | 23284 ft | 366 kts | 297° |
| 2026-05-05 02:06 | 43.41438 | -88.51551 | 24021 ft | 360 kts | 297° |
| 2026-05-05 02:06 | 43.42796 | -88.54442 | 24784 ft | 357 kts | 297° |
| 2026-05-05 02:06 | 43.44139 | -88.57306 | 25376 ft | 356 kts | 297° |
| 2026-05-05 02:06 | 43.45480 | -88.60169 | 25955 ft | 356 kts | 296° |
| 2026-05-05 02:07 | 43.46816 | -88.63026 | 26578 ft | 353 kts | 296° |
| 2026-05-05 02:07 | 43.48141 | -88.65860 | 27217 ft | 351 kts | 296° |
| 2026-05-05 02:07 | 43.49461 | -88.68685 | 27813 ft | 350 kts | 296° |
| 2026-05-05 02:07 | 43.50773 | -88.71497 | 28383 ft | 349 kts | 296° |
| 2026-05-05 02:08 | 43.52079 | -88.74300 | 28992 ft | 347 kts | 296° |
| 2026-05-05 02:08 | 43.53378 | -88.77090 | 29565 ft | 346 kts | 296° |
| 2026-05-05 02:08 | 43.55983 | -88.82697 | 29605 ft | 345 kts | 296° |
| 2026-05-05 02:09 | 43.58551 | -88.88229 | 29611 ft | 345 kts | 296° |
| 2026-05-05 02:09 | 43.61129 | -88.93797 | 29587 ft | 345 kts | 296° |
| 2026-05-05 02:10 | 43.63709 | -88.99378 | 29597 ft | 345 kts | 296° |
| 2026-05-05 02:10 | 43.66265 | -89.04916 | 29590 ft | 343 kts | 296° |
| 2026-05-05 02:11 | 43.68824 | -89.10473 | 29592 ft | 342 kts | 296° |
| 2026-05-05 02:11 | 43.71370 | -89.16012 | 29587 ft | 341 kts | 296° |
| 2026-05-05 02:12 | 43.75140 | -89.24232 | 29615 ft | 340 kts | 296° |
| 2026-05-05 02:13 | 43.77656 | -89.29730 | 29605 ft | 337 kts | 296° |
| 2026-05-05 02:13 | 43.80165 | -89.35227 | 29600 ft | 338 kts | 296° |
| 2026-05-05 02:14 | 43.82675 | -89.40733 | 29606 ft | 338 kts | 296° |
| 2026-05-05 02:14 | 43.85179 | -89.46239 | 29623 ft | 338 kts | 295° |
| 2026-05-05 02:15 | 43.87679 | -89.51743 | 29608 ft | 337 kts | 295° |
| 2026-05-05 02:15 | 43.90166 | -89.57230 | 29610 ft | 336 kts | 295° |
| 2026-05-05 02:16 | 43.92644 | -89.62708 | 29611 ft | 335 kts | 295° |
| 2026-05-05 02:16 | 43.95113 | -89.68178 | 29605 ft | 334 kts | 295° |
| 2026-05-05 02:17 | 43.97578 | -89.73649 | 29608 ft | 334 kts | 295° |
| 2026-05-05 02:17 | 44.00039 | -89.79121 | 29611 ft | 334 kts | 295° |
| 2026-05-05 02:18 | 44.02502 | -89.84609 | 29614 ft | 335 kts | 295° |
| 2026-05-05 02:18 | 44.04966 | -89.90105 | 29620 ft | 335 kts | 295° |
| 2026-05-05 02:19 | 44.07432 | -89.95595 | 29613 ft | 335 kts | 296° |
| 2026-05-05 02:19 | 44.10322 | -90.00740 | 29626 ft | 338 kts | 301° |
| 2026-05-05 02:20 | 44.13305 | -90.05773 | 29612 ft | 336 kts | 301° |
| 2026-05-05 02:20 | 44.16244 | -90.10765 | 29618 ft | 335 kts | 301° |
| 2026-05-05 02:21 | 44.19180 | -90.15784 | 29626 ft | 334 kts | 301° |
| 2026-05-05 02:21 | 44.22109 | -90.20811 | 29627 ft | 334 kts | 301° |
| 2026-05-05 02:22 | 44.25040 | -90.25852 | 29635 ft | 335 kts | 300° |
| 2026-05-05 02:22 | 44.27966 | -90.30892 | 29632 ft | 335 kts | 300° |
| 2026-05-05 02:23 | 44.30895 | -90.35943 | 29645 ft | 334 kts | 300° |
| 2026-05-05 02:23 | 44.33807 | -90.40974 | 29654 ft | 333 kts | 300° |
| 2026-05-05 02:23 | 44.35107 | -90.43606 | 29642 ft | 324 kts | 289° |
| 2026-05-05 02:24 | 44.35985 | -90.46469 | 29659 ft | 320 kts | 286° |
| 2026-05-05 02:24 | 44.37643 | -90.52246 | 29657 ft | 321 kts | 286° |
| 2026-05-05 02:25 | 44.39327 | -90.58033 | 29662 ft | 322 kts | 287° |
| 2026-05-05 02:25 | 44.41029 | -90.63832 | 29665 ft | 323 kts | 287° |
| 2026-05-05 02:26 | 44.42729 | -90.69615 | 29691 ft | 324 kts | 287° |
| 2026-05-05 02:26 | 44.44452 | -90.75441 | 29664 ft | 323 kts | 287° |
| 2026-05-05 02:27 | 44.46166 | -90.81238 | 29680 ft | 321 kts | 286° |
| 2026-05-05 02:27 | 44.47851 | -90.86956 | 29667 ft | 317 kts | 286° |
| 2026-05-05 02:27 | 44.48676 | -90.89754 | 29665 ft | 305 kts | 286° |
| 2026-05-05 02:28 | 44.49479 | -90.92478 | 29415 ft | 299 kts | 286° |
| 2026-05-05 02:28 | 44.50259 | -90.95131 | 29166 ft | 292 kts | 286° |
| 2026-05-05 02:28 | 44.51024 | -90.97746 | 28882 ft | 287 kts | 285° |
| 2026-05-05 02:28 | 44.51777 | -91.00320 | 28535 ft | 283 kts | 285° |
| 2026-05-05 02:29 | 44.52516 | -91.02852 | 28186 ft | 279 kts | 285° |
| 2026-05-05 02:29 | 44.53241 | -91.05334 | 27831 ft | 276 kts | 285° |
| 2026-05-05 02:29 | 44.53964 | -91.07816 | 27496 ft | 273 kts | 285° |
| 2026-05-05 02:29 | 44.54678 | -91.10269 | 27136 ft | 270 kts | 285° |
| 2026-05-05 02:30 | 44.55383 | -91.12694 | 26813 ft | 267 kts | 285° |
| 2026-05-05 02:30 | 44.56081 | -91.15093 | 26489 ft | 264 kts | 285° |
| 2026-05-05 02:30 | 44.56770 | -91.17465 | 26164 ft | 262 kts | 285° |
| 2026-05-05 02:30 | 44.57454 | -91.19825 | 25838 ft | 260 kts | 285° |
| 2026-05-05 02:31 | 44.58124 | -91.22137 | 25527 ft | 259 kts | 285° |
| 2026-05-05 02:31 | 44.58803 | -91.24483 | 25226 ft | 259 kts | 285° |
| 2026-05-05 02:31 | 44.59487 | -91.26852 | 24900 ft | 267 kts | 285° |
| 2026-05-05 02:31 | 44.60196 | -91.29312 | 24556 ft | 276 kts | 285° |
| 2026-05-05 02:32 | 44.60918 | -91.31808 | 24235 ft | 275 kts | 285° |
| 2026-05-05 02:32 | 44.61634 | -91.34285 | 23833 ft | 274 kts | 285° |
| 2026-05-05 02:32 | 44.62351 | -91.36761 | 23510 ft | 272 kts | 285° |
| 2026-05-05 02:32 | 44.63060 | -91.39213 | 23165 ft | 269 kts | 285° |
| 2026-05-05 02:33 | 44.63761 | -91.41633 | 22777 ft | 266 kts | 285° |
| 2026-05-05 02:33 | 44.64452 | -91.44027 | 22456 ft | 263 kts | 285° |
| 2026-05-05 02:33 | 44.65121 | -91.46344 | 22148 ft | 260 kts | 285° |
| 2026-05-05 02:33 | 44.65796 | -91.48689 | 21827 ft | 258 kts | 285° |
| 2026-05-05 02:34 | 44.66464 | -91.51012 | 21523 ft | 255 kts | 285° |
| 2026-05-05 02:34 | 44.67126 | -91.53316 | 21238 ft | 253 kts | 285° |
| 2026-05-05 02:34 | 44.67782 | -91.55601 | 20932 ft | 252 kts | 285° |
| 2026-05-05 02:34 | 44.68435 | -91.57881 | 20633 ft | 250 kts | 285° |
| 2026-05-05 02:35 | 44.69083 | -91.60145 | 20329 ft | 250 kts | 285° |
| 2026-05-05 02:35 | 44.69730 | -91.62405 | 20035 ft | 249 kts | 285° |
| 2026-05-05 02:35 | 44.70376 | -91.64666 | 19735 ft | 249 kts | 285° |
| 2026-05-05 02:35 | 44.71021 | -91.66924 | 19429 ft | 249 kts | 285° |
| 2026-05-05 02:36 | 44.71665 | -91.69181 | 19145 ft | 249 kts | 285° |
| 2026-05-05 02:36 | 44.72309 | -91.71440 | 18865 ft | 249 kts | 286° |
| 2026-05-05 02:36 | 44.72954 | -91.73702 | 18575 ft | 249 kts | 286° |
| 2026-05-05 02:36 | 44.73600 | -91.75971 | 18278 ft | 250 kts | 286° |
| 2026-05-05 02:37 | 44.74245 | -91.78239 | 17980 ft | 251 kts | 286° |
| 2026-05-05 02:37 | 44.74893 | -91.80519 | 17634 ft | 251 kts | 286° |
| 2026-05-05 02:37 | 44.75539 | -91.82793 | 17313 ft | 251 kts | 286° |
| 2026-05-05 02:37 | 44.76154 | -91.84961 | 17023 ft | 251 kts | 286° |
| 2026-05-05 02:38 | 44.76796 | -91.87225 | 16722 ft | 251 kts | 286° |
| 2026-05-05 02:38 | 44.77427 | -91.89507 | 16395 ft | 250 kts | 286° |
| 2026-05-05 02:38 | 44.78049 | -91.91797 | 16105 ft | 250 kts | 286° |
| 2026-05-05 02:38 | 44.78663 | -91.94060 | 15960 ft | 246 kts | 286° |
| 2026-05-05 02:39 | 44.79271 | -91.96301 | 15710 ft | 245 kts | 286° |
| 2026-05-05 02:39 | 44.79880 | -91.98552 | 15429 ft | 247 kts | 286° |
| 2026-05-05 02:39 | 44.80493 | -92.00814 | 15135 ft | 248 kts | 287° |
| 2026-05-05 02:39 | 44.81109 | -92.03096 | 14845 ft | 250 kts | 287° |
| 2026-05-05 02:40 | 44.81732 | -92.05397 | 14536 ft | 252 kts | 287° |
| 2026-05-05 02:40 | 44.82357 | -92.07707 | 14228 ft | 254 kts | 287° |
| 2026-05-05 02:40 | 44.82988 | -92.10042 | 13938 ft | 255 kts | 287° |
| 2026-05-05 02:40 | 44.83620 | -92.12382 | 13633 ft | 257 kts | 287° |
| 2026-05-05 02:41 | 44.84258 | -92.14750 | 13304 ft | 259 kts | 287° |
| 2026-05-05 02:41 | 44.84894 | -92.17107 | 12969 ft | 257 kts | 288° |
| 2026-05-05 02:41 | 44.85383 | -92.19497 | 12631 ft | 252 kts | 276° |
| 2026-05-05 02:41 | 44.85516 | -92.21906 | 12350 ft | 249 kts | 274° |
| 2026-05-05 02:42 | 44.85644 | -92.24230 | 12068 ft | 246 kts | 275° |
| 2026-05-05 02:42 | 44.85788 | -92.26689 | 11767 ft | 245 kts | 275° |
| 2026-05-05 02:42 | 44.85926 | -92.29050 | 11475 ft | 243 kts | 275° |
| 2026-05-05 02:42 | 44.86065 | -92.31422 | 11196 ft | 243 kts | 275° |
| 2026-05-05 02:43 | 44.86197 | -92.33794 | 10904 ft | 243 kts | 275° |
| 2026-05-05 02:43 | 44.86314 | -92.36174 | 10617 ft | 243 kts | 275° |
| 2026-05-05 02:43 | 44.86429 | -92.38549 | 10328 ft | 244 kts | 275° |
| 2026-05-05 02:43 | 44.86544 | -92.40930 | 10037 ft | 243 kts | 275° |
| 2026-05-05 02:44 | 44.86658 | -92.43295 | 9744 ft | 241 kts | 276° |
| 2026-05-05 02:44 | 44.86771 | -92.45648 | 9438 ft | 240 kts | 276° |
| 2026-05-05 02:44 | 44.86837 | -92.47986 | 9120 ft | 239 kts | 268° |
| 2026-05-05 02:44 | 44.86381 | -92.50255 | 8836 ft | 244 kts | 251° |
| 2026-05-05 02:45 | 44.85619 | -92.52408 | 8549 ft | 246 kts | 248° |
| 2026-05-05 02:45 | 44.84815 | -92.54538 | 8252 ft | 247 kts | 248° |
| 2026-05-05 02:45 | 44.84014 | -92.56675 | 7950 ft | 248 kts | 248° |
| 2026-05-05 02:45 | 44.83215 | -92.58832 | 7650 ft | 248 kts | 248° |
| 2026-05-05 02:46 | 44.82422 | -92.60985 | 7356 ft | 248 kts | 248° |
| 2026-05-05 02:46 | 44.81667 | -92.63164 | 7091 ft | 247 kts | 249° |
| 2026-05-05 02:46 | 44.80873 | -92.65291 | 7001 ft | 245 kts | 248° |
| 2026-05-05 02:46 | 44.80345 | -92.66696 | 7001 ft | 244 kts | 248° |
| 2026-05-05 02:47 | 44.79593 | -92.68817 | 6972 ft | 237 kts | 256° |
| 2026-05-05 02:47 | 44.79348 | -92.71022 | 6994 ft | 223 kts | 270° |
| 2026-05-05 02:47 | 44.79226 | -92.73247 | 6483 ft | 234 kts | 269° |
| 2026-05-05 02:47 | 44.79094 | -92.75558 | 5996 ft | 241 kts | 269° |
| 2026-05-05 02:48 | 44.78949 | -92.77939 | 5475 ft | 248 kts | 266° |
| 2026-05-05 02:48 | 44.78580 | -92.80334 | 5176 ft | 247 kts | 264° |
| 2026-05-05 02:48 | 44.78530 | -92.82711 | 4953 ft | 240 kts | 276° |
| 2026-05-05 02:48 | 44.78605 | -92.85046 | 4690 ft | 238 kts | 275° |
| 2026-05-05 02:49 | 44.78659 | -92.87364 | 4432 ft | 236 kts | 275° |
| 2026-05-05 02:49 | 44.78699 | -92.89668 | 4167 ft | 234 kts | 275° |
| 2026-05-05 02:49 | 44.78727 | -92.91928 | 4044 ft | 226 kts | 275° |
| 2026-05-05 02:49 | 44.78747 | -92.94085 | 4016 ft | 215 kts | 274° |
| 2026-05-05 02:50 | 44.78764 | -92.96136 | 3997 ft | 203 kts | 274° |
| 2026-05-05 02:50 | 44.78779 | -92.98087 | 4011 ft | 198 kts | 274° |
| 2026-05-05 02:50 | 44.78848 | -93.00004 | 4007 ft | 193 kts | 287° |
| 2026-05-05 02:50 | 44.79423 | -93.01699 | 3826 ft | 196 kts | 301° |
| 2026-05-05 02:51 | 44.80102 | -93.03336 | 3577 ft | 195 kts | 301° |
| 2026-05-05 02:51 | 44.80784 | -93.04938 | 3326 ft | 186 kts | 302° |
| 2026-05-05 02:51 | 44.81442 | -93.06460 | 3076 ft | 173 kts | 302° |
| 2026-05-05 02:51 | 44.82044 | -93.07849 | 2855 ft | 164 kts | 303° |
| 2026-05-05 02:52 | 44.82623 | -93.09165 | 2661 ft | 146 kts | 304° |
| 2026-05-05 02:52 | 44.83124 | -93.10327 | 2467 ft | 133 kts | 302° |
| 2026-05-05 02:52 | 44.83590 | -93.11422 | 2288 ft | 132 kts | 303° |
| 2026-05-05 02:52 | 44.84063 | -93.12521 | 2122 ft | 131 kts | 303° |
| 2026-05-05 02:53 | 44.84540 | -93.13625 | 1913 ft | 132 kts | 303° |
| 2026-05-05 02:53 | 44.85020 | -93.14733 | 1747 ft | 134 kts | 303° |
| 2026-05-05 02:53 | 44.85492 | -93.15825 | 1579 ft | 136 kts | 302° |
| 2026-05-05 02:53 | 44.85969 | -93.16985 | 1373 ft | 139 kts | 300° |
| 2026-05-05 02:54 | 44.86502 | -93.18168 | 1237 ft | 148 kts | 301° |
| 2026-05-05 02:54 | 44.87045 | -93.19411 | 1010 ft | 146 kts | 301° |
| 2026-05-05 02:54 | 44.87547 | -93.20575 | 826 ft | 134 kts | 301° |
| 2026-05-05 02:54 | 44.87960 | -93.21528 | 821 ft | 86 kts | 301° |
| 2026-05-05 02:55 | 44.88157 | -93.21989 | 823 ft | 26 kts | 294° |
| 2026-05-05 02:55 | 44.88154 | -93.22083 | 825 ft | 15 kts | 248° |
| 2026-05-05 02:55 | 44.88097 | -93.22180 | 825 ft | 13 kts | 229° |
| 2026-05-05 02:55 | 44.88036 | -93.22272 | 824 ft | 13 kts | 226° |
| 2026-05-05 02:56 | 44.87970 | -93.22369 | 822 ft | 17 kts | 224° |
| 2026-05-05 02:56 | 44.87885 | -93.22492 | 821 ft | 17 kts | 225° |
| 2026-05-05 02:56 | 44.87808 | -93.22601 | 823 ft | 15 kts | 225° |
| 2026-05-05 02:56 | 44.87736 | -93.22698 | 824 ft | 14 kts | 218° |
| 2026-05-05 02:57 | 44.87666 | -93.22802 | 823 ft | 14 kts | 226° |
| 2026-05-05 02:57 | 44.87601 | -93.22892 | 824 ft | 12 kts | 224° |
| 2026-05-05 02:57 | 44.87558 | -93.22925 | 824 ft | 5 kts | 158° |
| 2026-05-05 02:57 | 44.87522 | -93.22880 | 824 ft | 8 kts | 135° |
| 2026-05-05 02:58 | 44.87501 | -93.22852 | 824 ft | 4 kts | 134° |
| 2026-05-05 02:58 | 44.87495 | -93.22842 | 824 ft | 0 kts | 134° |